Time;durP1;ratioP1;P1;durP2;ratioP2;P2;SDS_P1;SDS_P2;PMS_P1;PMS_P2;Temp;Humidity;BMP_temperature;BMP_pressure;BME280_temperature;BME280_humidity;BME280_pressure;Samples;Min_cycle;Max_cycle;Signal;HPM_P1;HPM_P2
2022/05/05 00:00:15;;;;;;;21.30;10.02;;;;;;;13.13;61.35;101882.34;5035471;28;20437;-50
2022/05/05 00:02:43;;;;;;;21.88;10.27;;;;;;;13.12;61.68;101887.00;5060790;28;20395;-52
2022/05/05 00:05:11;;;;;;;20.67;11.32;;;;;;;13.10;62.58;101883.69;5056117;28;20045;-51
2022/05/05 00:07:38;;;;;;;22.02;12.20;;;;;;;13.09;63.49;101881.25;5048946;28;20041;-50
2022/05/05 00:14:23;;;;;;;22.65;12.07;;;;;;;13.07;63.29;101883.41;5041902;28;20049;-53
2022/05/05 00:15:40;;;;;;;16.17;11.50;;;;;;;13.05;64.06;101878.19;5053235;28;20411;-52
2022/05/05 00:18:08;;;;;;;20.70;11.82;;;;;;;13.03;63.87;101879.53;5052699;28;20488;-50
2022/05/05 00:20:35;;;;;;;25.10;12.80;;;;;;;13.00;64.69;101880.88;5072897;28;20037;-50
2022/05/05 00:23:03;;;;;;;19.73;11.68;;;;;;;12.97;64.34;101884.13;5053283;28;20514;-49
2022/05/05 00:25:31;;;;;;;18.40;11.43;;;;;;;12.98;64.41;101878.38;5072734;28;20041;-50
2022/05/05 00:27:58;;;;;;;25.20;12.48;;;;;;;13.00;64.37;101870.75;5053352;28;20041;-50
2022/05/05 00:30:26;;;;;;;25.50;11.30;;;;;;;13.02;64.01;101884.19;5073652;28;20052;-50
2022/05/05 00:32:53;;;;;;;21.10;12.35;;;;;;;13.04;63.99;101883.94;5070918;28;20040;-51
2022/05/05 00:35:21;;;;;;;20.70;12.02;;;;;;;13.06;63.66;101881.72;5072667;28;20158;-50
2022/05/05 00:37:49;;;;;;;21.23;11.98;;;;;;;13.05;63.84;101886.38;5075206;28;20036;-53
2022/05/05 00:40:16;;;;;;;20.95;11.52;;;;;;;13.06;64.17;101882.59;5056375;28;20036;-49
2022/05/05 00:42:44;;;;;;;20.00;10.75;;;;;;;13.05;63.99;101886.38;5073207;28;20110;-48
2022/05/05 00:45:12;;;;;;;21.60;12.50;;;;;;;13.01;64.61;101885.25;5019001;28;20041;-50
2022/05/05 00:47:40;;;;;;;22.83;12.35;;;;;;;12.97;64.13;101878.66;5036449;28;20492;-52
2022/05/05 00:50:08;;;;;;;21.85;12.20;;;;;;;12.95;64.77;101886.28;5019196;28;20033;-50
2022/05/05 00:52:35;;;;;;;21.35;11.35;;;;;;;12.90;64.58;101880.78;5049792;28;20029;-50
2022/05/05 00:55:03;;;;;;;23.50;10.82;;;;;;;12.86;65.00;101879.63;5055919;28;20498;-49
2022/05/05 00:57:31;;;;;;;22.00;11.10;;;;;;;12.85;64.83;101883.47;5056577;28;20051;-48
2022/05/05 01:00:00;;;;;;;22.33;11.88;;;;;;;12.85;64.83;101872.50;5038524;28;20048;-51
2022/05/05 01:02:29;;;;;;;19.55;11.40;;;;;;;12.87;64.82;101878.53;5039846;28;20496;-48
2022/05/05 01:05:05;;;;;;;18.52;10.93;;;;;;;12.88;64.59;101872.00;5024044;28;20050;-51
2022/05/05 01:07:34;;;;;;;17.52;10.68;;;;;;;12.90;64.64;101858.88;5036271;28;20041;-52
2022/05/05 01:10:01;;;;;;;18.35;11.20;;;;;;;12.89;64.65;101865.44;5036160;28;20060;-50
2022/05/05 01:12:31;;;;;;;18.33;11.23;;;;;;;12.87;65.33;101867.59;5015027;28;20069;-52
2022/05/05 01:15:00;;;;;;;18.58;10.73;;;;;;;12.84;65.35;101870.84;4985429;28;20050;-51
2022/05/05 01:17:28;;;;;;;18.60;11.18;;;;;;;12.80;65.31;101873.28;5013083;28;20046;-51
2022/05/05 01:19:55;;;;;;;19.88;11.00;;;;;;;12.78;65.42;101876.25;5036463;28;20503;-51
2022/05/05 01:22:26;;;;;;;17.95;11.18;;;;;;;12.79;65.18;101869.72;5036068;28;20076;-51
2022/05/05 01:30:25;;;;;;;20.50;10.82;;;;;;;12.76;65.54;101883.06;5038230;28;19928;-53
2022/05/05 01:32:53;;;;;;;18.95;11.85;;;;;;;12.73;66.40;101876.22;5032922;28;20347;-52
2022/05/05 01:35:21;;;;;;;18.42;10.98;;;;;;;12.73;65.48;101876.22;5016063;28;20038;-50
2022/05/05 01:37:48;;;;;;;20.95;11.10;;;;;;;12.70;66.12;101868.53;5016295;28;20046;-52
2022/05/05 01:40:16;;;;;;;20.77;10.80;;;;;;;12.67;66.28;101871.75;5026908;28;20041;-50
2022/05/05 01:42:44;;;;;;;22.10;11.45;;;;;;;12.65;66.08;101873.09;5054031;28;20391;-53
2022/05/05 01:45:12;;;;;;;17.02;10.57;;;;;;;12.64;65.92;101871.47;5037054;28;20399;-51
2022/05/05 01:47:39;;;;;;;24.65;11.85;;;;;;;12.63;66.61;101881.56;5035544;28;20496;-51
2022/05/05 01:50:07;;;;;;;25.70;11.30;;;;;;;12.62;67.31;101877.16;5035844;28;20123;-50
2022/05/05 01:52:35;;;;;;;19.30;11.38;;;;;;;12.63;66.56;101884.31;5033276;28;20108;-51
2022/05/05 01:55:04;;;;;;;19.73;11.13;;;;;;;12.63;66.80;101880.72;5028611;28;20411;-50
2022/05/05 01:57:31;;;;;;;16.65;10.57;;;;;;;12.62;66.92;101879.91;5035325;28;20050;-51
2022/05/05 02:00:00;;;;;;;18.88;10.95;;;;;;;12.62;66.53;101879.91;5035111;28;20048;-52
2022/05/05 02:02:42;;;;;;;17.67;10.65;;;;;;;12.60;67.28;101876.59;5021690;28;20048;-49
2022/05/05 02:05:10;;;;;;;16.15;11.32;;;;;;;12.57;66.56;101877.13;5016036;28;20046;-50
2022/05/05 02:07:39;;;;;;;18.88;10.93;;;;;;;12.51;67.48;101883.63;5029473;28;20059;-51
2022/05/05 02:10:08;;;;;;;19.02;10.35;;;;;;;12.46;66.98;101880.78;5034954;28;20073;-51
2022/05/05 02:12:36;;;;;;;18.98;10.52;;;;;;;12.40;67.07;101879.09;5055441;28;20055;-52
2022/05/05 02:15:08;;;;;;;19.88;11.13;;;;;;;12.36;67.66;101882.34;5059131;28;20044;-54
2022/05/05 02:17:42;;;;;;;14.85;10.07;;;;;;;12.36;67.75;101882.34;5074995;28;20044;-52
2022/05/05 02:20:13;;;;;;;18.38;10.63;;;;;;;12.39;67.89;101880.16;5057080;28;20037;-51
2022/05/05 02:22:41;;;;;;;17.98;10.48;;;;;;;12.41;67.41;101878.00;5054268;28;20041;-51
2022/05/05 02:25:09;;;;;;;20.65;10.75;;;;;;;12.39;68.10;101877.44;5055657;28;20049;-53
2022/05/05 02:27:51;;;;;;;17.42;10.63;;;;;;;12.33;67.71;101882.84;5020788;28;20460;-50
2022/05/05 02:30:23;;;;;;;19.17;10.82;;;;;;;12.28;67.21;101880.03;5036148;28;20037;-52
2022/05/05 02:32:51;;;;;;;23.83;11.90;;;;;;;12.25;68.30;101882.47;5031359;28;20050;-52
2022/05/05 02:35:18;;;;;;;25.60;11.43;;;;;;;12.23;67.71;101884.63;5035205;28;20046;-52
2022/05/05 02:40:32;;;;;;;17.45;10.90;;;;;;;12.19;69.15;101887.00;5056162;28;20406;-50
2022/05/05 02:43:00;;;;;;;22.40;11.57;;;;;;;12.21;68.71;101884.03;5052831;28;20509;-51
2022/05/05 02:45:28;;;;;;;16.80;11.10;;;;;;;12.20;68.49;101885.94;5036779;28;20033;-52
2022/05/05 02:47:56;;;;;;;17.23;10.45;;;;;;;12.15;68.80;101881.25;5054405;28;20049;-50
2022/05/05 02:50:24;;;;;;;19.98;10.90;;;;;;;12.08;69.47;101885.25;5054135;28;20052;-48
2022/05/05 02:52:53;;;;;;;17.92;10.77;;;;;;;12.00;69.35;101885.66;5071194;28;20037;-50
2022/05/05 02:55:21;;;;;;;18.58;11.05;;;;;;;11.96;69.75;101892.72;5055508;28;20041;-48
2022/05/05 02:57:49;;;;;;;18.17;10.98;;;;;;;11.98;69.83;101893.28;5057488;28;20051;-50
2022/05/05 03:00:17;;;;;;;18.55;10.70;;;;;;;12.01;69.37;101890.88;5034921;28;20041;-52
2022/05/05 03:02:45;;;;;;;18.02;10.82;;;;;;;12.07;69.40;101894.50;5037402;28;20048;-52
2022/05/05 03:05:14;;;;;;;18.85;11.70;;;;;;;12.09;69.38;101884.97;5054826;28;20510;-52
2022/05/05 03:07:42;;;;;;;19.67;11.15;;;;;;;12.09;69.66;101889.63;5054125;28;20041;-51
2022/05/05 03:10:11;;;;;;;20.27;11.40;;;;;;;12.05;69.95;101893.91;5036332;28;20045;-53
2022/05/05 03:12:39;;;;;;;19.30;10.77;;;;;;;11.99;69.68;101892.22;4997225;28;20121;-53
2022/05/05 03:15:07;;;;;;;18.73;11.13;;;;;;;11.98;70.15;101885.06;4996754;28;20044;-51
2022/05/05 03:17:36;;;;;;;19.52;11.00;;;;;;;11.96;70.05;101888.06;5033335;28;20193;-50
2022/05/05 03:20:04;;;;;;;17.85;11.18;;;;;;;11.94;69.98;101885.59;5020915;28;20091;-50
2022/05/05 03:22:32;;;;;;;17.67;11.40;;;;;;;11.90;69.50;101884.44;5053339;28;20029;-50
2022/05/05 03:24:59;;;;;;;19.58;11.60;;;;;;;11.90;70.58;101892.63;5043701;28;20424;-50
2022/05/05 03:27:27;;;;;;;17.77;10.93;;;;;;;11.91;70.09;101890.75;5013772;28;20046;-53
2022/05/05 03:29:55;;;;;;;16.38;11.20;;;;;;;11.88;69.67;101889.34;4998095;28;20048;-53
2022/05/05 03:32:23;;;;;;;27.17;12.88;;;;;;;11.87;69.86;101890.41;5037175;28;20053;-51
2022/05/05 03:34:51;;;;;;;18.98;11.32;;;;;;;11.86;70.68;101894.19;5053423;28;20044;-50
2022/05/05 03:37:19;;;;;;;19.27;11.88;;;;;;;11.82;70.04;101898.50;5045133;28;20045;-51
2022/05/05 03:39:47;;;;;;;24.42;12.13;;;;;;;11.81;70.54;101896.84;5036305;28;20108;-51
2022/05/05 03:42:15;;;;;;;21.15;11.75;;;;;;;11.80;70.71;101900.63;5033798;28;20483;-50
2022/05/05 03:44:42;;;;;;;18.42;11.00;;;;;;;11.81;70.61;101899.56;5034352;28;20045;-49
2022/05/05 03:47:10;;;;;;;21.63;11.95;;;;;;;11.83;70.69;101904.78;5015604;28;20056;-53
2022/05/05 03:49:38;;;;;;;23.48;11.50;;;;;;;11.81;70.48;101901.47;5029893;28;20041;-54
2022/05/05 03:52:06;;;;;;;22.42;11.45;;;;;;;11.80;70.28;101905.28;5034442;28;20044;-51
2022/05/05 03:54:33;;;;;;;19.10;11.75;;;;;;;11.71;70.68;101910.31;5033015;28;20048;-49
2022/05/05 03:57:01;;;;;;;20.75;11.82;;;;;;;11.68;70.95;101908.91;5017149;28;20045;-52
2022/05/05 03:59:29;;;;;;;18.55;11.77;;;;;;;11.66;71.19;101910.25;5016416;28;20120;-53
2022/05/05 04:01:56;;;;;;;18.23;11.95;;;;;;;11.59;71.23;101909.56;5032497;28;20061;-52
2022/05/05 04:04:25;;;;;;;20.17;12.07;;;;;;;11.50;72.33;101918.19;5014530;28;20100;-51
2022/05/05 04:06:53;;;;;;;22.10;12.52;;;;;;;11.46;72.13;101922.47;5032476;28;20542;-51
2022/05/05 04:09:21;;;;;;;19.95;12.27;;;;;;;11.42;72.64;101920.47;5034516;28;20065;-51
2022/05/05 04:11:48;;;;;;;25.05;12.13;;;;;;;11.34;72.85;101923.63;5027668;28;20132;-52
2022/05/05 04:14:16;;;;;;;23.73;13.02;;;;;;;11.28;73.21;101925.41;5039423;28;20132;-49
2022/05/05 04:16:44;;;;;;;25.02;12.85;;;;;;;11.24;73.07;101922.38;5038651;28;20052;-52
2022/05/05 04:19:11;;;;;;;18.23;11.90;;;;;;;11.24;73.62;101927.00;5040126;28;20049;-51
2022/05/05 04:21:39;;;;;;;22.27;12.32;;;;;;;11.27;73.37;101931.97;5040843;28;20037;-51
2022/05/05 04:24:07;;;;;;;19.40;12.05;;;;;;;11.36;73.13;101932.41;5038120;28;20057;-47
2022/05/05 04:26:35;;;;;;;18.63;11.55;;;;;;;11.40;73.08;101928.94;5038126;28;20038;-49
2022/05/05 04:29:03;;;;;;;25.45;12.73;;;;;;;11.39;71.78;101938.19;5048612;28;20064;-49
2022/05/05 04:31:33;;;;;;;29.17;13.43;;;;;;;11.35;72.11;101942.47;5057623;28;20048;-49
2022/05/05 04:34:01;;;;;;;26.58;13.70;;;;;;;11.29;72.65;101938.00;5057822;28;20130;-49
2022/05/05 04:36:34;;;;;;;25.42;13.35;;;;;;;11.24;72.74;101940.66;5023974;28;20033;-49
2022/05/05 04:39:04;;;;;;;26.40;12.77;;;;;;;11.22;73.16;101937.34;5042560;28;20048;-52
2022/05/05 04:41:32;;;;;;;28.92;12.88;;;;;;;11.23;72.58;101944.44;5058104;28;20041;-53
2022/05/05 04:43:59;;;;;;;23.40;13.38;;;;;;;11.23;72.74;101945.28;5049700;28;20519;-50
2022/05/05 04:46:27;;;;;;;22.75;13.13;;;;;;;11.24;72.53;101940.66;5039192;28;20117;-52
2022/05/05 04:48:56;;;;;;;22.70;13.02;;;;;;;11.28;72.77;101944.53;5019685;28;20053;-51
2022/05/05 04:51:23;;;;;;;24.20;13.85;;;;;;;11.29;72.04;101946.19;5056899;28;20407;-51
2022/05/05 04:53:51;;;;;;;25.00;13.70;;;;;;;11.27;72.15;101957.34;5056421;28;20041;-50
2022/05/05 04:56:19;;;;;;;24.17;13.73;;;;;;;11.24;72.49;101954.28;5045662;28;20033;-50
2022/05/05 04:58:47;;;;;;;26.58;13.77;;;;;;;11.21;72.76;101957.50;5026829;28;20076;-52
2022/05/05 05:01:14;;;;;;;30.27;15.07;;;;;;;11.18;72.94;101952.53;5059196;28;20048;-50
2022/05/05 05:03:42;;;;;;;31.13;14.63;;;;;;;11.18;73.01;101953.34;5059138;28;20463;-51
2022/05/05 05:06:10;;;;;;;29.27;14.65;;;;;;;11.20;73.07;101961.28;5056326;28;20117;-49
2022/05/05 05:08:39;;;;;;;24.98;13.93;;;;;;;11.19;72.49;101965.94;5040771;28;20051;-50
2022/05/05 05:11:07;;;;;;;25.70;14.45;;;;;;;11.23;72.82;101960.78;5047202;28;20480;-48
2022/05/05 05:13:36;;;;;;;23.60;14.25;;;;;;;11.32;72.57;101969.44;5060125;28;20037;-49
2022/05/05 05:16:04;;;;;;;28.45;15.15;;;;;;;11.38;72.24;101963.00;5052399;28;20049;-51
2022/05/05 05:18:50;;;;;;;29.10;14.93;;;;;;;11.40;72.52;101969.88;5051530;28;20056;-53
2022/05/05 05:21:17;;;;;;;26.55;14.88;;;;;;;11.41;71.87;101965.22;5079242;28;20132;-52
2022/05/05 05:23:45;;;;;;;22.13;14.40;;;;;;;11.43;71.65;101966.66;5065769;28;20044;-49
2022/05/05 05:26:13;;;;;;;29.95;15.30;;;;;;;11.43;72.00;101972.09;5062230;28;20059;-52
2022/05/05 05:28:41;;;;;;;30.23;14.60;;;;;;;11.46;72.35;101970.78;5065169;28;20052;-49
2022/05/05 05:31:09;;;;;;;27.58;14.50;;;;;;;11.52;71.88;101976.09;5043844;28;20044;-53
2022/05/05 05:33:36;;;;;;;27.85;15.35;;;;;;;11.58;71.94;101978.91;4348343;28;10000731;-50
2022/05/05 05:36:05;;;;;;;30.20;15.75;;;;;;;11.62;71.68;101985.53;5063618;28;20080;-51
2022/05/05 05:38:32;;;;;;;30.45;15.60;;;;;;;11.65;71.02;101979.56;5052842;28;20510;-55
2022/05/05 05:41:00;;;;;;;34.13;15.35;;;;;;;11.63;71.28;101979.00;5063143;28;20052;-52
2022/05/05 05:43:28;;;;;;;28.40;15.20;;;;;;;11.61;72.07;101983.88;5067938;28;20048;-53
2022/05/05 05:45:56;;;;;;;28.08;15.18;;;;;;;11.61;71.10;101987.41;5055623;28;20069;-53
2022/05/05 05:48:23;;;;;;;34.00;16.40;;;;;;;11.63;71.97;101987.19;5065655;28;20074;-50
2022/05/05 05:50:51;;;;;;;34.67;15.95;;;;;;;11.67;71.72;101982.88;5062989;28;20045;-52
2022/05/05 05:53:19;;;;;;;28.83;15.23;;;;;;;11.72;70.78;101993.91;5052564;28;20041;-54
2022/05/05 05:55:46;;;;;;;34.60;15.18;;;;;;;11.74;70.95;101991.75;5062673;28;20668;-50
2022/05/05 05:58:14;;;;;;;31.42;15.40;;;;;;;11.78;71.27;101983.88;5064868;28;20041;-52
2022/05/05 06:00:42;;;;;;;25.88;14.45;;;;;;;11.82;70.79;101985.03;5056596;28;20129;-50
2022/05/05 06:05:58;;;;;;;31.27;14.75;;;;;;;11.88;70.00;101993.13;5051646;28;20473;-50
2022/05/05 06:08:25;;;;;;;27.80;15.68;;;;;;;11.92;70.24;101993.44;5055672;28;20048;-49
2022/05/05 06:10:53;;;;;;;32.53;15.50;;;;;;;11.96;69.99;101996.50;5038156;28;20058;-49
2022/05/05 06:13:23;;;;;;;31.42;15.40;;;;;;;11.98;69.04;101994.34;5032283;28;20049;-49
2022/05/05 06:15:50;;;;;;;28.40;13.90;;;;;;;12.01;68.41;101993.84;5031606;28;20052;-50
2022/05/05 06:18:18;;;;;;;31.38;13.95;;;;;;;12.02;68.25;101996.31;5051827;28;20033;-49
2022/05/05 06:20:46;;;;;;;27.25;14.50;;;;;;;12.05;67.45;101995.00;5063076;28;20143;-49
2022/05/05 06:23:13;;;;;;;24.10;11.93;;;;;;;12.09;65.47;101996.16;5069542;28;20040;-47
2022/05/05 06:25:41;;;;;;;25.60;11.43;;;;;;;12.11;64.38;101997.56;5069812;28;20044;-51
2022/05/05 06:28:09;;;;;;;21.88;10.82;;;;;;;12.13;63.61;102002.78;5041431;28;20048;-49
2022/05/05 06:30:36;;;;;;;27.77;12.77;;;;;;;12.14;63.59;102005.25;5051303;28;20049;-48
2022/05/05 06:33:04;;;;;;;22.17;11.23;;;;;;;12.17;63.41;102003.97;5039670;28;20041;-48
2022/05/05 06:35:32;;;;;;;20.92;11.02;;;;;;;12.20;63.18;102002.63;5042193;28;20136;-49
2022/05/05 06:37:59;;;;;;;22.25;10.55;;;;;;;12.27;63.22;102003.28;5045637;28;20379;-50
2022/05/05 06:40:27;;;;;;;18.20;9.13;;;;;;;12.32;62.18;101998.72;5059284;28;20055;-51
2022/05/05 06:42:56;;;;;;;17.38;9.18;;;;;;;12.42;61.89;102008.13;5051507;28;20099;-49
2022/05/05 06:45:23;;;;;;;19.92;9.68;;;;;;;12.48;60.03;101998.91;5017641;28;20044;-51
2022/05/05 06:47:53;;;;;;;17.98;9.50;;;;;;;12.52;59.45;101997.34;5055132;28;20107;-52
2022/05/05 06:50:21;;;;;;;17.13;8.68;;;;;;;12.58;59.73;102010.84;5053650;28;20044;-57
2022/05/05 06:52:49;;;;;;;17.77;9.20;;;;;;;12.63;59.23;102009.22;5055757;28;20045;-60
2022/05/05 06:55:18;;;;;;;19.42;10.63;;;;;;;12.66;59.63;102004.09;5057103;28;20493;-52
2022/05/05 06:57:46;;;;;;;24.10;10.60;;;;;;;12.68;58.95;102015.63;5033547;28;20030;-54
2022/05/05 07:00:14;;;;;;;24.40;11.80;;;;;;;12.70;58.12;102013.47;5032588;28;20040;-51
2022/05/05 07:02:42;;;;;;;20.70;11.63;;;;;;;12.76;58.54;102011.63;5053771;28;20047;-52
2022/05/05 07:05:26;;;;;;;20.63;11.05;;;;;;;12.85;59.42;102017.47;5036516;28;20052;-49
2022/05/05 07:07:54;;;;;;;27.13;13.23;;;;;;;12.88;58.50;102019.69;5055047;28;20044;-48
2022/05/05 07:13:09;;;;;;;;;;;;;;;12.96;59.87;102027.44;5054224;28;20526;-50
2022/05/05 07:15:37;;;;;;;21.63;13.15;;;;;;;12.99;60.30;102037.91;5036325;28;20035;-50
2022/05/05 07:18:05;;;;;;;24.85;12.85;;;;;;;13.02;60.38;102033.84;5068202;28;20040;-52
2022/05/05 07:20:34;;;;;;;21.60;13.77;;;;;;;13.03;60.70;102044.50;5071688;28;20048;-54
2022/05/05 07:23:01;;;;;;;22.58;12.60;;;;;;;13.05;61.52;102047.81;5071439;28;20119;-49
2022/05/05 07:25:29;;;;;;;26.13;14.88;;;;;;;13.08;61.99;102050.03;5055686;28;20047;-50
2022/05/05 07:27:57;;;;;;;30.33;15.55;;;;;;;13.11;61.85;102046.81;5071681;28;20040;-48
2022/05/05 07:30:25;;;;;;;28.25;15.63;;;;;;;13.13;61.96;102050.13;5073064;28;20487;-48
2022/05/05 07:32:52;;;;;;;24.23;13.75;;;;;;;13.17;62.55;102056.72;5071316;28;20044;-48
2022/05/05 07:35:21;;;;;;;27.27;16.35;;;;;;;13.19;61.63;102053.75;5073518;28;20394;-48
2022/05/05 07:37:48;;;;;;;28.02;15.88;;;;;;;13.20;62.57;102063.59;5058158;28;20127;-51
2022/05/05 07:40:17;;;;;;;28.80;16.27;;;;;;;13.21;62.99;102052.41;5053232;28;20463;-51
2022/05/05 07:42:44;;;;;;;23.65;12.50;;;;;;;13.25;62.88;102058.19;5054296;28;20124;-48
2022/05/05 07:45:12;;;;;;;25.75;16.27;;;;;;;13.27;62.55;102055.19;5053192;28;20047;-48
2022/05/05 07:47:40;;;;;;;25.35;16.00;;;;;;;13.27;62.52;102057.94;5062089;28;20047;-50
2022/05/05 07:50:08;;;;;;;28.30;18.55;;;;;;;13.26;63.15;102057.09;5073156;28;20513;-50
2022/05/05 07:52:36;;;;;;;30.55;18.90;;;;;;;13.27;63.31;102058.78;5071553;28;20076;-48
2022/05/05 07:55:05;;;;;;;28.13;18.90;;;;;;;13.28;64.00;102062.38;5055652;28;20429;-48
2022/05/05 07:57:32;;;;;;;28.75;17.80;;;;;;;13.30;63.70;102065.66;5057827;28;20539;-48
2022/05/05 08:00:00;;;;;;;28.88;18.00;;;;;;;13.32;63.18;102064.31;5035263;28;20045;-48
2022/05/05 08:02:38;;;;;;;29.88;17.52;;;;;;;13.37;63.87;102066.28;5054069;28;20461;-51
2022/05/05 08:05:08;;;;;;;32.92;17.75;;;;;;;13.39;63.56;102073.16;5053040;28;20075;-51
2022/05/05 08:07:41;;;;;;;33.35;19.00;;;;;;;13.43;63.53;102070.75;5054836;28;20044;-52
2022/05/05 08:10:10;;;;;;;30.75;18.30;;;;;;;13.46;63.52;102075.69;5053748;28;20045;-54
2022/05/05 08:12:38;;;;;;;36.08;19.60;;;;;;;13.50;63.80;102076.03;5053803;28;20061;-49
2022/05/05 08:15:07;;;;;;;35.28;21.48;;;;;;;13.51;64.61;102075.75;5052810;28;20040;-51
2022/05/05 08:17:35;;;;;;;35.50;20.70;;;;;;;13.56;65.08;102077.72;5052423;28;20068;-50
2022/05/05 08:20:04;;;;;;;30.52;20.33;;;;;;;13.58;64.87;102072.81;5057464;28;20040;-50
2022/05/05 08:22:33;;;;;;;35.58;21.45;;;;;;;13.60;65.60;102078.88;5026950;28;20492;-50
2022/05/05 08:30:33;;;;;;;31.65;21.42;;;;;;;13.74;65.27;102084.78;5056428;28;20040;-48
2022/05/05 08:33:00;;;;;;;39.03;22.45;;;;;;;13.75;65.96;102083.69;5059360;28;20060;-49
2022/05/05 08:35:28;;;;;;;32.20;20.98;;;;;;;13.77;66.17;102097.94;5054674;28;20041;-47
2022/05/05 08:37:56;;;;;;;37.22;21.50;;;;;;;13.82;66.22;102096.06;5073131;28;20052;-47
2022/05/05 08:40:26;;;;;;;30.80;19.92;;;;;;;13.86;66.03;102090.94;5065183;28;20029;-49
2022/05/05 08:42:54;;;;;;;36.00;21.48;;;;;;;13.91;66.19;102099.19;5052380;28;20037;-50
2022/05/05 08:45:22;;;;;;;33.08;21.25;;;;;;;13.96;65.93;102101.16;5016009;28;20053;-50
2022/05/05 08:47:51;;;;;;;35.60;24.65;;;;;;;14.00;66.65;102105.84;5064817;28;20037;-50
2022/05/05 08:50:19;;;;;;;43.55;23.27;;;;;;;14.00;67.20;102103.13;5054220;28;20045;-48
2022/05/05 08:52:49;;;;;;;35.20;24.13;;;;;;;14.00;67.44;102103.13;5052953;28;20446;-50
2022/05/05 08:55:19;;;;;;;37.50;24.27;;;;;;;14.01;67.98;102103.94;5053093;28;20053;-50
2022/05/05 08:57:47;;;;;;;35.63;25.70;;;;;;;14.03;68.33;102104.50;5035367;28;20466;-50
2022/05/05 09:00:16;;;;;;;30.08;21.17;;;;;;;14.06;67.61;102103.97;5038064;28;20385;-51
2022/05/05 09:02:44;;;;;;;34.08;23.10;;;;;;;14.09;67.55;102110.84;5056090;28;20044;-49
2022/05/05 09:05:12;;;;;;;35.47;23.88;;;;;;;14.07;67.89;102113.88;5056450;28;20465;-50
2022/05/05 09:07:58;;;;;;;37.38;24.48;;;;;;;14.06;68.67;102118.50;5074338;28;20041;-46
2022/05/05 09:10:26;;;;;;;;;;;;;;;14.10;68.24;102116.09;5067128;28;20074;-49
2022/05/05 09:12:59;;;;;;;39.40;25.10;;;;;;;14.12;68.20;102121.28;5035231;28;19966;-50
2022/05/05 09:15:34;;;;;;;36.63;24.60;;;;;;;14.13;68.40;102123.78;5034920;28;20045;-48
2022/05/05 09:18:23;;;;;;;38.50;23.47;;;;;;;14.16;67.88;102122.44;5046120;28;20087;-49
2022/05/05 09:20:51;;;;;;;31.17;22.35;;;;;;;14.19;67.84;102119.16;5050955;28;20068;-50
2022/05/05 09:23:31;;;;;;;29.77;21.85;;;;;;;14.22;67.38;102121.41;5056855;28;20064;-49
2022/05/05 09:26:06;;;;;;;29.95;18.95;;;;;;;14.29;67.84;102116.53;5040516;28;20076;-49
2022/05/05 09:28:36;;;;;;;28.00;19.60;;;;;;;14.37;67.76;102118.78;5038018;28;20419;-49
2022/05/05 09:31:06;;;;;;;24.45;16.10;;;;;;;14.48;67.23;102115.03;5039684;28;20037;-48
2022/05/05 09:33:34;;;;;;;29.20;17.20;;;;;;;14.57;66.80;102107.16;5039185;28;20037;-48
2022/05/05 09:36:04;;;;;;;23.38;15.43;;;;;;;14.67;66.57;102111.91;5064042;28;20120;-48
2022/05/05 09:39:05;;;;;;;28.25;16.05;;;;;;;14.83;66.06;102110.91;5035857;28;20046;-47
2022/05/05 09:41:34;;;;;;;30.65;21.13;;;;;;;14.91;65.75;102113.16;5056173;28;20064;-49
2022/05/05 09:44:21;;;;;;;25.88;16.05;;;;;;;14.98;65.88;102112.09;5039026;28;20128;-49
2022/05/05 09:46:49;;;;;;;33.30;22.70;;;;;;;15.01;65.90;102122.53;5051971;28;20041;-44
2022/05/05 09:49:18;;;;;;;31.42;21.75;;;;;;;15.02;66.01;102124.19;5041865;28;20095;-46
2022/05/05 09:57:40;;;;;;;27.23;20.45;;;;;;;14.89;66.28;102128.25;5029024;28;20080;-49
2022/05/05 10:00:24;;;;;;;30.38;22.20;;;;;;;14.91;65.74;102124.16;5039970;28;20052;-48
2022/05/05 10:06:07;;;;;;;30.60;21.33;;;;;;;14.98;64.92;102134.06;5056090;28;20065;-47
2022/05/05 10:08:37;;;;;;;28.08;20.13;;;;;;;15.00;65.36;102129.13;5020402;28;20040;-47
2022/05/05 10:11:09;;;;;;;35.72;23.10;;;;;;;15.02;65.38;102126.94;5055330;28;20057;-51
2022/05/05 10:13:38;;;;;;;29.70;20.48;;;;;;;15.01;65.68;102134.38;5055656;28;20068;-49
2022/05/05 10:16:07;;;;;;;31.85;21.88;;;;;;;15.02;65.59;102126.94;5050841;28;20406;-49
2022/05/05 10:18:38;;;;;;;34.55;24.08;;;;;;;15.03;66.09;102131.34;5054740;28;20484;-49
2022/05/05 10:21:26;;;;;;;36.80;24.25;;;;;;;15.04;65.98;102124.75;5037756;28;20064;-49
2022/05/05 10:24:05;;;;;;;35.67;25.63;;;;;;;15.06;65.96;102133.56;5036483;28;20408;-49
2022/05/05 10:26:33;;;;;;;33.97;23.52;;;;;;;15.07;65.48;102127.78;5055110;28;20403;-49
2022/05/05 10:29:02;;;;;;;31.08;22.90;;;;;;;15.12;65.58;102129.75;5037051;28;20063;-48
2022/05/05 10:31:34;;;;;;;34.35;23.88;;;;;;;15.13;65.29;102123.19;5034585;28;20075;-51
2022/05/05 10:34:06;;;;;;;30.55;22.75;;;;;;;15.13;65.10;102125.91;5056550;28;20049;-50
2022/05/05 10:36:35;;;;;;;33.72;23.13;;;;;;;15.18;65.62;102123.19;5037067;28;20041;-50
2022/05/05 10:39:21;;;;;;;32.85;23.17;;;;;;;15.23;65.11;102125.13;5017846;28;20412;-51
2022/05/05 10:41:51;;;;;;;37.80;22.25;;;;;;;15.27;65.61;102116.09;5017561;28;20050;-48
2022/05/05 10:44:19;;;;;;;36.42;24.83;;;;;;;15.31;65.69;102116.38;5053601;28;20053;-48
2022/05/05 10:46:57;;;;;;;38.63;24.95;;;;;;;15.39;64.18;102120.53;5019581;28;20076;-49
2022/05/05 10:49:31;;;;;;;38.25;25.52;;;;;;;15.41;63.47;102132.06;5031419;28;20049;-48
2022/05/05 10:52:22;;;;;;;34.42;23.95;;;;;;;15.43;62.81;102124.41;5034014;28;20046;-48
2022/05/05 10:54:55;;;;;;;35.10;25.30;;;;;;;15.41;63.10;102123.84;5055275;28;20055;-48
2022/05/05 10:57:25;;;;;;;32.15;23.70;;;;;;;15.43;62.93;102124.41;5038053;28;20052;-48
2022/05/05 11:00:40;;;;;;;34.90;24.83;;;;;;;15.47;63.50;102126.34;5034072;28;20041;-48
2022/05/05 11:03:09;;;;;;;30.42;22.55;;;;;;;15.52;62.58;102126.34;4972816;28;20056;-50
2022/05/05 11:05:38;;;;;;;38.25;26.40;;;;;;;15.60;63.59;102125.00;5055673;28;20067;-48
2022/05/05 11:08:17;;;;;;;38.70;27.42;;;;;;;15.62;62.97;102122.81;5049843;28;20116;-51
2022/05/05 11:10:47;;;;;;;34.95;25.58;;;;;;;15.63;63.18;102129.94;5043332;28;20052;-50
2022/05/05 11:13:36;;;;;;;35.83;24.65;;;;;;;15.69;61.87;102126.13;5053879;28;20051;-57
2022/05/05 11:22:27;;;;;;;31.92;22.73;;;;;;;15.78;59.73;102120.97;5021620;28;20052;-48
2022/05/05 11:24:55;;;;;;;33.22;24.30;;;;;;;15.80;59.56;102128.94;5054834;28;20044;-49
2022/05/05 11:27:25;;;;;;;28.45;20.63;;;;;;;15.82;58.50;102129.47;5035937;28;20045;-48
2022/05/05 11:29:55;;;;;;;29.05;21.13;;;;;;;15.85;58.94;102126.19;5053361;28;20045;-48
2022/05/05 11:32:32;;;;;;;27.85;20.63;;;;;;;15.89;59.69;102127.31;5054311;28;20044;-50
2022/05/05 11:35:01;;;;;;;33.05;23.95;;;;;;;15.92;59.23;102121.25;5058216;28;20456;-50
2022/05/05 11:37:31;;;;;;;35.20;23.83;;;;;;;15.96;59.49;102127.88;5035851;28;20072;-49
2022/05/05 11:40:02;;;;;;;35.67;24.55;;;;;;;16.05;60.02;102119.91;5053419;28;20047;-50
2022/05/05 11:44:14;;;;;;;36.88;28.38;;;;;;;16.06;59.85;102127.88;5054519;28;20049;-50
2022/05/05 11:45:18;;;;;;;35.50;25.98;;;;;;;16.05;59.38;102126.22;5057098;28;20055;-49
2022/05/05 11:47:46;;;;;;;32.25;24.30;;;;;;;16.06;59.17;102119.63;5053355;28;20120;-49
2022/05/05 11:50:14;;;;;;;33.90;25.30;;;;;;;16.11;59.43;102125.13;5035439;28;20120;-50
2022/05/05 11:52:42;;;;;;;31.48;22.95;;;;;;;16.15;58.73;102118.00;5053111;28;20387;-52
2022/05/05 11:55:11;;;;;;;30.30;23.27;;;;;;;16.19;57.95;102123.78;5057718;28;20041;-50
2022/05/05 11:57:40;;;;;;;34.00;22.63;;;;;;;16.19;57.83;102119.09;5035520;28;20051;-50